Time;durP1;ratioP1;P1;durP2;ratioP2;P2;SDS_P1;SDS_P2;PMS_P1;PMS_P2;Temp;Humidity;BMP_temperature;BMP_pressure;BME280_temperature;BME280_humidity;BME280_pressure;Samples;Min_cycle;Max_cycle;Signal;HPM_P1;HPM_P2
2022/03/22 00:02:25;;;;;;;0.00;0.00;;;;;;;2.62;72.59;103378.69;10406940;28;20029;-68
2022/03/22 00:07:27;;;;;;;0.00;0.00;;;;;;;2.44;73.48;103375.69;10403994;28;20095;-68
2022/03/22 00:12:28;;;;;;;0.00;0.00;;;;;;;2.25;74.97;103380.59;10405147;28;20496;-68
2022/03/22 00:17:28;;;;;;;0.05;0.05;;;;;;;2.05;76.74;103382.91;10404780;28;20030;-68
2022/03/22 00:22:29;;;;;;;0.00;0.00;;;;;;;1.93;77.68;103378.84;10405297;28;20036;-68
2022/03/22 00:27:50;;;;;;;0.00;0.00;;;;;;;1.93;78.34;103377.97;10412357;28;20268;-68
2022/03/22 00:32:54;;;;;;;0.00;0.00;;;;;;;1.92;78.21;103373.59;10411869;28;20249;-68
2022/03/22 00:37:56;;;;;;;0.00;0.00;;;;;;;1.93;77.79;103380.59;10429693;28;20108;-68
2022/03/22 00:42:57;;;;;;;0.10;0.10;;;;;;;1.90;77.19;103383.31;10411788;28;20030;-67
2022/03/22 00:47:58;;;;;;;0.10;0.10;;;;;;;1.93;76.65;103372.72;10411585;28;20429;-68
2022/03/22 00:53:01;;;;;;;0.00;0.00;;;;;;;1.98;75.50;103376.94;10409925;28;20105;-68
2022/03/22 00:58:02;;;;;;;0.00;0.00;;;;;;;1.96;75.46;103378.75;10411442;28;20034;-67
2022/03/22 01:03:04;;;;;;;0.00;0.00;;;;;;;2.02;75.12;103375.09;10410865;28;20037;-68
2022/03/22 01:08:10;;;;;;;0.10;0.10;;;;;;;2.08;74.83;103377.56;10409699;28;20017;-67
2022/03/22 01:13:11;;;;;;;0.10;0.10;;;;;;;2.09;73.53;103374.00;10410071;28;20124;-67
2022/03/22 01:18:12;;;;;;;0.10;0.10;;;;;;;2.17;73.24;103374.66;10410751;28;20556;-67
2022/03/22 01:23:15;;;;;;;0.00;0.00;;;;;;;2.14;73.74;103363.38;10415084;28;20029;-67
2022/03/22 01:28:16;;;;;;;0.00;0.00;;;;;;;2.01;74.19;103373.38;10410003;28;20013;-67
2022/03/22 01:33:17;;;;;;;0.00;0.00;;;;;;;1.85;75.75;103374.69;10409477;28;20021;-67
2022/03/22 01:38:17;;;;;;;0.10;0.10;;;;;;;1.69;76.49;103382.97;10409677;28;20380;-67
2022/03/22 01:43:17;;;;;;;0.10;0.10;;;;;;;1.68;75.28;103368.09;10409124;28;20391;-67
2022/03/22 01:48:18;;;;;;;0.10;0.10;;;;;;;1.82;74.75;103370.34;10408859;28;20024;-67
2022/03/22 01:53:19;;;;;;;0.00;0.00;;;;;;;1.85;74.68;103358.91;10408668;28;20029;-67
2022/03/22 01:58:19;;;;;;;0.00;0.00;;;;;;;1.80;75.03;103353.75;10408793;28;20022;-67
2022/03/22 02:08:38;;;;;;;0.10;0.10;;;;;;;1.76;74.77;103346.88;10428761;28;20025;-67
2022/03/22 02:13:39;;;;;;;0.10;0.10;;;;;;;1.65;75.24;103352.41;10407232;28;20029;-67
2022/03/22 02:18:40;;;;;;;0.10;0.10;;;;;;;1.58;75.67;103348.22;10368966;22;20408;-69
2022/03/22 02:23:51;;;;;;;0.10;0.10;;;;;;;1.54;75.84;103346.56;10345292;28;20071;-68
2022/03/22 02:28:53;;;;;;;0.03;0.03;;;;;;;1.49;76.67;103340.56;10386538;28;20447;-69
2022/03/22 02:33:53;;;;;;;0.10;0.10;;;;;;;1.40;77.04;103340.78;10389524;28;20037;-69
2022/03/22 02:38:53;;;;;;;0.10;0.10;;;;;;;1.29;77.50;103347.19;10389194;28;20110;-68
2022/03/22 02:43:54;;;;;;;0.00;0.00;;;;;;;1.23;77.50;103344.69;10395446;28;20538;-68
2022/03/22 02:48:55;;;;;;;0.00;0.00;;;;;;;1.23;77.80;103338.59;10390451;28;20025;-68
2022/03/22 02:53:56;;;;;;;0.10;0.10;;;;;;;1.19;77.97;103337.78;10387529;28;20025;-69
2022/03/22 02:58:57;;;;;;;0.10;0.10;;;;;;;1.15;77.83;103340.53;10387522;28;20014;-68
2022/03/22 03:03:57;;;;;;;0.10;0.10;;;;;;;1.15;78.15;103341.38;10387619;28;20389;-68
2022/03/22 03:08:59;;;;;;;0.00;0.00;;;;;;;1.13;77.78;103343.19;10384084;28;20064;-68
2022/03/22 03:19:18;;;;;;;0.10;0.10;;;;;;;0.95;78.49;103339.22;10397471;28;20479;-67
2022/03/22 03:24:18;;;;;;;0.10;0.10;;;;;;;0.88;79.22;103332.41;10387249;28;20025;-67
2022/03/22 03:29:18;;;;;;;0.10;0.10;;;;;;;0.80;80.23;103334.34;10394607;28;20022;-68
2022/03/22 03:34:19;;;;;;;0.17;0.17;;;;;;;0.70;80.84;103332.81;10384016;28;20025;-68
2022/03/22 03:39:20;;;;;;;0.10;0.10;;;;;;;0.60;81.57;103334.78;10393746;28;20025;-67
2022/03/22 03:49:45;;;;;;;0.00;0.00;;;;;;;0.43;83.06;103346.47;10394887;28;20343;-68
2022/03/22 03:54:45;;;;;;;0.00;0.00;;;;;;;0.27;84.17;103341.59;10386636;28;20051;-67
2022/03/22 03:59:46;;;;;;;0.00;0.00;;;;;;;0.13;86.35;103344.50;10393116;28;20427;-68
2022/03/22 04:04:51;;;;;;;0.08;0.08;;;;;;;0.10;86.87;103352.41;10396512;28;20540;-68
2022/03/22 04:09:54;;;;;;;0.10;0.10;;;;;;;0.08;87.04;103360.28;10397603;28;20025;-68
2022/03/22 04:14:54;;;;;;;0.10;0.10;;;;;;;0.10;87.32;103352.41;10392127;28;20405;-67
2022/03/22 04:19:54;;;;;;;0.00;0.00;;;;;;;0.14;87.87;103360.16;10397062;28;20017;-68
2022/03/22 04:24:55;;;;;;;0.10;0.10;;;;;;;0.20;87.18;103356.56;10392195;28;20101;-68
2022/03/22 04:35:18;;;;;;;0.10;0.10;;;;;;;0.29;87.19;103368.63;10389164;28;20485;-68
2022/03/22 04:40:19;;;;;;;0.10;0.10;;;;;;;0.30;86.96;103366.00;10397628;28;20025;-69
2022/03/22 04:45:20;;;;;;;0.10;0.10;;;;;;;0.35;85.85;103371.13;10398073;28;20029;-68
2022/03/22 04:50:20;;;;;;;0.03;0.03;;;;;;;0.37;84.85;103367.56;10386581;28;20025;-68
2022/03/22 05:00:39;;;;;;;0.10;0.10;;;;;;;0.24;84.95;103371.34;10399657;28;20284;-68
2022/03/22 05:10:59;;;;;;;0.10;0.10;;;;;;;0.16;85.68;103373.25;10394537;28;20252;-68
2022/03/22 05:15:59;;;;;;;0.08;0.08;;;;;;;0.20;86.56;103394.16;10371177;28;20468;-67
2022/03/22 05:21:02;;;;;;;0.13;0.13;;;;;;;0.21;86.74;103388.00;10387167;28;20028;-68
2022/03/22 05:26:04;;;;;;;0.00;0.00;;;;;;;0.23;86.75;103385.34;10382411;28;20496;-68
2022/03/22 05:31:05;;;;;;;0.10;0.10;;;;;;;0.34;85.82;103386.00;10384554;28;20453;-68
2022/03/22 05:36:06;;;;;;;0.00;0.00;;;;;;;0.45;84.76;103391.91;10385643;28;20420;-68
2022/03/22 05:41:08;;;;;;;0.10;0.10;;;;;;;0.66;83.15;103387.09;10383082;28;20029;-68
2022/03/22 05:46:09;;;;;;;0.10;0.10;;;;;;;0.88;83.17;103390.13;10379183;28;20018;-68
2022/03/22 05:51:10;;;;;;;0.15;0.15;;;;;;;1.04;82.82;103391.50;10375667;28;20018;-68
2022/03/22 05:56:11;;;;;;;0.08;0.08;;;;;;;1.21;83.37;103398.16;10385207;28;20022;-68
2022/03/22 06:01:12;;;;;;;0.10;0.10;;;;;;;1.34;82.28;103397.84;10391325;28;20053;-68
2022/03/22 06:06:12;;;;;;;0.00;0.00;;;;;;;1.52;82.14;103398.28;10390874;28;20032;-68
2022/03/22 06:11:12;;;;;;;0.00;0.00;;;;;;;1.68;81.43;103404.00;10389126;28;20022;-67
2022/03/22 06:16:13;;;;;;;0.00;0.00;;;;;;;1.86;82.06;103408.78;10375371;28;20079;-67
2022/03/22 06:21:14;;;;;;;0.00;0.00;;;;;;;2.08;81.58;103414.38;10372717;28;20421;-67
2022/03/22 06:26:14;;;;;;;0.05;0.05;;;;;;;2.29;81.22;103412.06;10376455;28;20586;-67
2022/03/22 06:31:16;;;;;;;0.00;0.00;;;;;;;2.55;81.41;103425.34;10380703;28;20028;-68
2022/03/22 06:36:16;;;;;;;0.00;0.00;;;;;;;2.77;81.02;103425.59;10387319;28;20013;-67
2022/03/22 06:41:17;;;;;;;0.00;0.00;;;;;;;3.03;79.77;103422.19;10389628;28;20108;-67
2022/03/22 06:46:18;;;;;;;0.00;0.00;;;;;;;3.55;78.83;103436.38;10371843;28;20032;-68
2022/03/22 06:51:19;;;;;;;0.00;0.00;;;;;;;4.29;76.94;103437.34;10370561;28;20036;-68
2022/03/22 06:56:20;;;;;;;0.00;0.00;;;;;;;5.07;73.06;103430.94;10369735;28;20025;-68
2022/03/22 07:01:20;;;;;;;0.00;0.00;;;;;;;5.68;74.13;103430.28;10369716;28;20030;-68
2022/03/22 07:06:20;;;;;;;0.00;0.00;;;;;;;6.19;71.39;103433.44;10369600;28;20017;-68
2022/03/22 07:16:39;;;;;;;0.00;0.00;;;;;;;7.20;65.75;103432.31;10401701;28;20029;-68
2022/03/22 07:21:41;;;;;;;0.00;0.00;;;;;;;7.82;63.74;103434.59;10410058;28;20473;-68
2022/03/22 07:26:42;;;;;;;0.00;0.00;;;;;;;8.39;58.15;103433.44;10374546;28;20045;-67
2022/03/22 07:31:42;;;;;;;0.00;0.00;;;;;;;8.74;56.66;103437.81;10411410;28;20036;-68
2022/03/22 07:36:44;;;;;;;0.10;0.10;;;;;;;9.29;56.15;103445.38;10388070;28;20029;-67
2022/03/22 07:41:44;;;;;;;0.10;0.10;;;;;;;9.68;54.51;103444.88;10414210;28;20315;-68
2022/03/22 07:46:45;;;;;;;0.10;0.10;;;;;;;10.15;54.85;103461.66;10385116;28;20100;-68
2022/03/22 07:57:09;;;;;;;0.10;0.10;;;;;;;11.02;52.39;103450.09;10400906;28;20026;-68
2022/03/22 08:02:09;;;;;;;0.10;0.10;;;;;;;11.51;50.79;103454.91;10395632;28;20030;-69
2022/03/22 08:07:09;;;;;;;0.10;0.10;;;;;;;11.67;49.81;103462.78;10382246;28;20017;-68
2022/03/22 08:12:10;;;;;;;0.10;0.10;;;;;;;12.09;49.96;103459.03;10398350;28;20480;-67
2022/03/22 08:17:10;;;;;;;0.10;0.10;;;;;;;12.56;46.02;103460.22;10405194;23;20041;-67
2022/03/22 08:22:10;;;;;;;0.10;0.10;;;;;;;13.05;45.62;103467.44;10402248;28;20026;-66
2022/03/22 08:27:11;;;;;;;0.10;0.10;;;;;;;13.11;44.77;103467.00;10362316;28;20018;-66
2022/03/22 08:32:11;;;;;;;0.10;0.10;;;;;;;13.42;44.95;103470.13;10367554;28;20062;-66
2022/03/22 08:37:12;;;;;;;0.10;0.10;;;;;;;13.63;43.70;103464.16;10371001;28;20277;-66
2022/03/22 08:42:12;;;;;;;0.10;0.10;;;;;;;13.65;45.00;103460.41;10364472;28;20049;-66
2022/03/22 08:47:12;;;;;;;0.10;0.10;;;;;;;13.81;43.99;103462.75;10323470;28;20014;-66
2022/03/22 08:52:13;;;;;;;0.10;0.10;;;;;;;14.15;42.67;103454.81;10358318;28;20026;-68
2022/03/22 08:57:13;;;;;;;0.10;0.10;;;;;;;14.22;42.64;103458.72;10362931;28;20072;-68
2022/03/22 09:02:14;;;;;;;0.10;0.10;;;;;;;14.54;42.99;103468.78;10360374;28;20034;-68
2022/03/22 09:07:14;;;;;;;0.10;0.10;;;;;;;14.72;42.53;103459.31;10351329;28;20076;-66
2022/03/22 09:12:14;;;;;;;0.10;0.10;;;;;;;15.11;41.86;103452.53;10371472;28;20029;-66
2022/03/22 09:17:15;;;;;;;0.10;0.10;;;;;;;15.26;40.20;103446.91;10371223;28;20404;-66
2022/03/22 09:22:15;;;;;;;0.10;0.10;;;;;;;15.42;41.33;103443.78;10371145;28;20041;-66
2022/03/22 09:27:15;;;;;;;0.10;0.10;;;;;;;15.76;42.03;103448.06;10371406;28;20447;-66
2022/03/22 09:32:16;;;;;;;0.00;0.00;;;;;;;15.70;39.50;103442.38;10371144;28;20273;-66
2022/03/22 09:37:16;;;;;;;0.00;0.00;;;;;;;15.36;40.50;103435.28;10370071;28;20033;-66
2022/03/22 09:42:17;;;;;;;0.10;0.10;;;;;;;15.09;41.32;103435.69;10357575;28;20397;-65
2022/03/22 09:47:17;;;;;;;0.00;0.00;;;;;;;14.78;40.35;103441.88;10330825;28;20014;-66
2022/03/22 09:52:18;;;;;;;0.10;0.10;;;;;;;14.39;42.28;103450.22;10330166;28;20014;-66
2022/03/22 09:57:18;;;;;;;0.10;0.10;;;;;;;14.54;42.37;103444.66;10328408;28;20014;-67
2022/03/22 10:02:34;;;;;;;0.10;0.10;;;;;;;14.69;42.96;103436.25;10352867;28;20477;-67
2022/03/22 10:07:34;;;;;;;0.10;0.10;;;;;;;14.54;42.63;103440.13;10369031;28;20022;-67
2022/03/22 10:12:37;;;;;;;0.10;0.10;;;;;;;14.49;42.75;103431.59;10369774;28;20080;-67
2022/03/22 10:17:38;;;;;;;0.10;0.10;;;;;;;14.56;42.30;103430.16;10351763;28;20022;-66
2022/03/22 10:22:38;;;;;;;0.10;0.10;;;;;;;14.75;41.21;103423.31;10359043;28;20026;-67
2022/03/22 10:27:39;;;;;;;0.10;0.10;;;;;;;15.03;42.25;103419.25;10329119;28;20026;-67
2022/03/22 10:32:41;;;;;;;0.10;0.10;;;;;;;15.43;40.59;103416.81;10328440;28;20276;-67
2022/03/22 10:37:46;;;;;;;0.10;0.10;;;;;;;15.28;39.62;103412.72;10338344;28;20623;-67
2022/03/22 10:42:48;;;;;;;0.10;0.10;;;;;;;15.35;39.72;103411.22;10340477;28;20034;-67
2022/03/22 10:47:48;;;;;;;0.10;0.10;;;;;;;15.38;39.18;103398.38;10328262;28;20018;-67
2022/03/22 10:52:59;;;;;;;0.10;0.10;;;;;;;15.43;41.24;103403.38;10346321;28;20026;-67
2022/03/22 10:58:01;;;;;;;0.10;0.10;;;;;;;15.40;39.56;103414.38;10325642;28;20084;-67
2022/03/22 11:03:04;;;;;;;0.10;0.10;;;;;;;15.42;40.78;103415.13;10350927;28;20156;-66
2022/03/22 11:08:05;;;;;;;0.10;0.10;;;;;;;15.50;40.49;103414.47;10367974;28;20511;-66
2022/03/22 11:13:05;;;;;;;0.10;0.10;;;;;;;15.65;40.79;103410.50;10369006;28;20025;-66
2022/03/22 11:18:07;;;;;;;0.10;0.10;;;;;;;15.71;40.94;103403.78;10369013;28;20026;-67
2022/03/22 11:23:09;;;;;;;0.10;0.10;;;;;;;15.79;41.21;103396.75;10368975;28;20053;-67
2022/03/22 11:28:11;;;;;;;0.10;0.10;;;;;;;15.94;39.40;103393.72;10333252;28;20335;-66
2022/03/22 11:38:54;;;;;;;0.10;0.10;;;;;;;16.15;41.10;103386.53;10349834;28;20109;-67
2022/03/22 11:44:02;;;;;;;0.00;0.00;;;;;;;16.16;40.00;103387.38;10326653;28;20482;-67
2022/03/22 11:49:25;;;;;;;0.00;0.00;;;;;;;16.35;40.74;103376.72;10326828;28;20114;-67
2022/03/22 11:54:27;;;;;;;0.10;0.10;;;;;;;16.42;40.01;103366.25;10326328;28;20039;-67
2022/03/22 11:59:27;;;;;;;0.10;0.10;;;;;;;16.42;40.56;103377.00;10327137;28;20092;-67
2022/03/22 12:04:57;;;;;;;0.10;0.10;;;;;;;16.59;40.07;103367.44;10338293;28;20060;-66
2022/03/22 12:10:05;;;;;;;0.10;0.10;;;;;;;16.65;40.40;103358.81;10340916;28;20040;-67
2022/03/22 12:15:08;;;;;;;0.00;0.00;;;;;;;16.71;39.11;103355.56;10366638;28;20563;-66
2022/03/22 12:20:11;;;;;;;0.10;0.10;;;;;;;16.68;38.46;103348.63;10364425;28;20558;-66
2022/03/22 12:25:15;;;;;;;0.10;0.10;;;;;;;16.85;38.08;103344.44;10374313;28;20477;-67
2022/03/22 12:30:15;;;;;;;0.10;0.10;;;;;;;16.93;38.05;103338.38;10373694;28;20025;-67
2022/03/22 12:35:16;;;;;;;0.10;0.10;;;;;;;16.98;36.76;103334.25;10373316;28;20017;-67
2022/03/22 12:40:17;;;;;;;0.10;0.10;;;;;;;16.98;37.80;103323.47;10355102;28;20030;-66
2022/03/22 12:45:22;;;;;;;0.10;0.10;;;;;;;16.92;37.22;103328.56;10373439;28;20026;-67
2022/03/22 12:50:23;;;;;;;0.10;0.10;;;;;;;16.85;37.03;103322.06;10373111;28;20045;-67
2022/03/22 12:55:27;;;;;;;0.10;0.10;;;;;;;16.93;37.60;103323.06;10372577;28;20392;-67
2022/03/22 13:00:33;;;;;;;0.10;0.10;;;;;;;17.00;37.94;103312.56;10366393;28;20050;-67
2022/03/22 13:05:39;;;;;;;0.00;0.00;;;;;;;17.08;38.32;103309.19;10365915;28;20026;-67
2022/03/22 13:15:59;;;;;;;0.00;0.00;;;;;;;17.19;35.12;103300.94;10333049;28;20038;-67
2022/03/22 13:21:01;;;;;;;0.00;0.00;;;;;;;17.20;40.49;103302.66;10363905;28;20104;-66
2022/03/22 13:26:01;;;;;;;0.10;0.10;;;;;;;17.27;39.52;103295.69;10353463;28;20028;-66
2022/03/22 13:31:01;;;;;;;0.10;0.10;;;;;;;17.36;39.75;103302.06;10334335;28;20036;-67
2022/03/22 13:36:04;;;;;;;0.08;0.08;;;;;;;17.39;37.27;103296.38;10334646;28;20022;-66
2022/03/22 13:41:06;;;;;;;0.10;0.10;;;;;;;17.42;39.94;103290.69;10368870;28;20033;-66
2022/03/22 13:46:07;;;;;;;0.10;0.10;;;;;;;17.47;39.99;103293.81;10367315;28;20028;-66
2022/03/22 13:51:09;;;;;;;0.00;0.00;;;;;;;17.45;38.29;103282.34;10370553;28;20429;-67
2022/03/22 13:56:09;;;;;;;0.00;0.00;;;;;;;17.32;37.79;103287.19;10371936;28;20026;-66
2022/03/22 14:01:11;;;;;;;0.10;0.10;;;;;;;17.31;40.70;103289.03;10371496;28;20407;-66
2022/03/22 14:06:12;;;;;;;0.00;0.00;;;;;;;17.37;37.50;103276.84;10362554;28;20492;-66
2022/03/22 14:11:13;;;;;;;0.00;0.00;;;;;;;17.41;39.83;103272.84;10370953;28;20026;-66
2022/03/22 14:16:14;;;;;;;0.10;0.10;;;;;;;17.38;40.42;103273.16;10373010;23;20136;-68
2022/03/22 14:21:14;;;;;;;0.10;0.10;;;;;;;17.31;39.48;103277.41;10319904;28;20113;-68
2022/03/22 14:26:15;;;;;;;0.00;0.00;;;;;;;17.24;38.52;103274.44;10327840;28;20022;-68
2022/03/22 14:31:15;;;;;;;0.07;0.07;;;;;;;17.21;39.55;103269.34;10363071;28;20022;-69
2022/03/22 14:36:15;;;;;;;0.00;0.00;;;;;;;17.15;37.16;103265.38;10337449;28;20572;-69
2022/03/22 14:41:24;;;;;;;0.10;0.10;;;;;;;17.06;36.85;103263.53;10329845;28;20038;-69
2022/03/22 14:46:25;;;;;;;0.10;0.10;;;;;;;16.97;36.98;103264.41;10318098;28;20030;-68
2022/03/22 15:02:03;;;;;;;0.00;0.00;;;;;;;16.80;35.67;103255.19;10290581;28;20485;-69
2022/03/22 15:07:03;;;;;;;0.10;0.10;;;;;;;16.75;36.41;103243.94;10290272;28;20023;-69
2022/03/22 15:12:04;;;;;;;0.17;0.17;;;;;;;16.75;40.45;103247.53;10289714;28;20470;-68
2022/03/22 15:17:05;;;;;;;0.08;0.08;;;;;;;16.65;41.22;103240.41;10289239;28;20568;-69
2022/03/22 15:22:07;;;;;;;0.10;0.10;;;;;;;16.54;39.95;103238.69;10288281;28;20031;-69
2022/03/22 15:27:08;;;;;;;0.10;0.10;;;;;;;16.43;36.96;103238.81;10289290;28;20030;-69
2022/03/22 15:32:08;;;;;;;0.10;0.10;;;;;;;16.33;37.67;103235.28;10289245;28;20054;-69
2022/03/22 15:37:08;;;;;;;0.08;0.08;;;;;;;16.26;39.67;103238.53;10289908;28;20019;-69
2022/03/22 15:42:09;;;;;;;0.08;0.08;;;;;;;16.15;39.67;103229.72;10288981;28;20501;-69
2022/03/22 15:47:09;;;;;;;0.10;0.10;;;;;;;16.05;40.30;103224.28;10288880;28;20478;-69
2022/03/22 15:52:10;;;;;;;0.00;0.00;;;;;;;15.93;38.26;103226.25;10288803;28;20027;-70
2022/03/22 15:57:10;;;;;;;0.10;0.10;;;;;;;15.83;39.75;103220.84;10296609;28;20026;-69
2022/03/22 16:02:11;;;;;;;0.10;0.10;;;;;;;15.69;40.92;103221.19;10296578;28;20034;-70
2022/03/22 16:07:11;;;;;;;0.00;0.00;;;;;;;15.53;41.24;103221.66;10296424;28;20111;-70
2022/03/22 16:12:12;;;;;;;0.10;0.10;;;;;;;15.36;41.35;103222.28;10309227;28;20026;-70
2022/03/22 16:17:14;;;;;;;0.00;0.00;;;;;;;15.22;41.73;103220.78;10332926;28;20022;-70
2022/03/22 16:22:14;;;;;;;0.10;0.10;;;;;;;15.11;41.06;103213.63;10309702;28;20027;-69
2022/03/22 16:27:15;;;;;;;0.00;0.00;;;;;;;15.06;41.99;103217.69;10310570;28;20023;-69
2022/03/22 16:32:15;;;;;;;0.00;0.00;;;;;;;14.98;41.27;103220.16;10333194;28;20027;-73
2022/03/22 16:37:16;;;;;;;0.10;0.10;;;;;;;14.85;42.14;103218.53;10311350;28;20022;-69
2022/03/22 16:42:18;;;;;;;0.00;0.00;;;;;;;14.72;41.36;103215.19;10317254;28;20027;-70
2022/03/22 16:47:20;;;;;;;0.10;0.10;;;;;;;14.55;41.05;103210.38;10300586;28;20027;-70
2022/03/22 16:52:21;;;;;;;0.10;0.10;;;;;;;14.39;41.89;103218.78;10293455;28;20030;-69
2022/03/22 16:57:21;;;;;;;0.10;0.10;;;;;;;14.18;42.22;103216.03;10310416;28;20018;-69
2022/03/22 17:02:22;;;;;;;0.10;0.10;;;;;;;14.01;42.14;103215.56;10317398;28;20026;-70
2022/03/22 17:07:22;;;;;;;0.10;0.10;;;;;;;13.81;42.68;103210.94;10306088;28;20010;-69
2022/03/22 17:12:22;;;;;;;0.10;0.10;;;;;;;13.58;42.80;103224.34;10317178;28;20492;-70
2022/03/22 17:17:23;;;;;;;0.10;0.10;;;;;;;13.32;45.28;103225.50;10313785;28;20033;-70
2022/03/22 17:22:25;;;;;;;0.10;0.10;;;;;;;13.03;45.57;103219.69;10298249;28;20023;-70
2022/03/22 17:27:26;;;;;;;0.00;0.00;;;;;;;12.70;47.22;103226.63;10324663;28;20594;-70
2022/03/22 17:32:26;;;;;;;0.10;0.10;;;;;;;12.36;48.10;103230.91;10311462;28;20105;-69
2022/03/22 17:37:27;;;;;;;0.10;0.10;;;;;;;12.05;50.44;103233.16;10342195;28;20026;-69
2022/03/22 17:42:28;;;;;;;0.10;0.10;;;;;;;11.71;50.99;103237.34;10313000;28;20398;-70
2022/03/22 17:47:28;;;;;;;0.10;0.10;;;;;;;11.37;51.65;103234.31;10301032;28;20050;-70
2022/03/22 17:52:28;;;;;;;0.10;0.10;;;;;;;11.10;52.21;103243.25;10317965;28;20270;-70
2022/03/22 17:57:29;;;;;;;0.05;0.05;;;;;;;10.82;52.65;103252.28;10306948;28;20022;-69
2022/03/22 18:02:34;;;;;;;0.10;0.10;;;;;;;10.58;54.34;103253.88;10303136;28;20058;-70
2022/03/22 18:07:35;;;;;;;0.10;0.10;;;;;;;10.33;54.71;103250.13;10310829;28;20034;-70
2022/03/22 18:12:35;;;;;;;0.00;0.00;;;;;;;10.16;56.10;103255.66;10314612;28;20512;-70
2022/03/22 18:17:37;;;;;;;0.10;0.10;;;;;;;9.83;56.53;103254.16;10312348;28;20038;-69
2022/03/22 18:22:38;;;;;;;0.05;0.05;;;;;;;9.53;59.12;103249.72;10317411;28;20492;-70
2022/03/22 18:27:38;;;;;;;0.00;0.00;;;;;;;9.50;58.79;103255.25;10305500;28;20019;-70
2022/03/22 18:32:40;;;;;;;0.10;0.10;;;;;;;9.28;60.84;103262.81;10308127;28;20027;-69
2022/03/22 18:37:47;;;;;;;0.10;0.10;;;;;;;9.07;61.92;103263.13;10313497;28;20117;-70
2022/03/22 18:42:49;;;;;;;0.10;0.10;;;;;;;9.02;61.54;103269.66;10302317;28;20082;-69
2022/03/22 18:47:51;;;;;;;0.00;0.00;;;;;;;8.91;61.17;103272.94;10307820;28;20025;-69
2022/03/22 18:52:52;;;;;;;0.10;0.10;;;;;;;8.73;63.08;103269.53;10312904;28;20493;-69
2022/03/22 18:57:52;;;;;;;0.00;0.00;;;;;;;8.59;64.15;103269.47;10304586;28;20038;-70
2022/03/22 19:02:53;;;;;;;0.10;0.10;;;;;;;8.39;64.92;103271.44;10316972;28;20028;-70
2022/03/22 19:07:55;;;;;;;0.00;0.00;;;;;;;8.35;62.39;103269.84;10315052;28;20328;-70
2022/03/22 19:12:59;;;;;;;0.08;0.08;;;;;;;8.15;65.61;103273.59;10300022;28;20117;-70
2022/03/22 19:17:59;;;;;;;0.00;0.00;;;;;;;7.85;66.86;103275.25;10303723;28;20030;-69
2022/03/22 19:23:01;;;;;;;0.10;0.10;;;;;;;7.65;67.79;103282.47;10309226;28;20026;-70
2022/03/22 19:28:02;;;;;;;0.00;0.00;;;;;;;7.54;67.65;103284.81;10308210;28;20434;-70
2022/03/22 19:33:08;;;;;;;0.00;0.00;;;;;;;7.44;68.12;103291.53;10317426;28;20049;-70
2022/03/22 19:38:12;;;;;;;0.00;0.00;;;;;;;7.35;68.05;103292.00;10308922;28;20462;-69
2022/03/22 19:43:14;;;;;;;0.00;0.00;;;;;;;7.26;67.06;103288.88;10306867;28;20034;-69
2022/03/22 19:48:16;;;;;;;0.00;0.00;;;;;;;7.21;64.03;103292.69;10310250;28;20018;-70
2022/03/22 19:53:16;;;;;;;0.00;0.00;;;;;;;7.23;65.51;103298.78;10302978;28;20026;-70
2022/03/22 19:58:18;;;;;;;0.00;0.00;;;;;;;7.21;64.30;103293.56;10312679;28;20019;-70
2022/03/22 20:03:20;;;;;;;0.00;0.00;;;;;;;7.23;63.60;103301.44;10305300;28;20069;-70
2022/03/22 20:08:20;;;;;;;0.00;0.00;;;;;;;7.08;63.81;103297.75;10308062;28;20018;-70
2022/03/22 20:13:20;;;;;;;0.00;0.00;;;;;;;6.92;65.57;103300.31;10302114;28;20081;-69
2022/03/22 20:18:21;;;;;;;0.00;0.00;;;;;;;6.82;66.03;103306.97;10307447;28;20019;-69
2022/03/22 20:23:22;;;;;;;0.00;0.00;;;;;;;6.69;66.32;103303.19;10309112;28;20018;-70
2022/03/22 20:28:22;;;;;;;0.00;0.00;;;;;;;6.58;66.80;103307.22;10295971;28;20101;-70
2022/03/22 20:33:23;;;;;;;0.00;0.00;;;;;;;6.42;66.58;103303.56;10280662;28;20034;-70
2022/03/22 20:38:23;;;;;;;0.00;0.00;;;;;;;6.30;67.23;103306.78;10287058;28;20022;-69
2022/03/22 20:43:24;;;;;;;0.00;0.00;;;;;;;6.17;66.83;103306.50;10293326;28;20278;-69
2022/03/22 20:48:24;;;;;;;0.00;0.00;;;;;;;6.08;67.84;103307.75;10300258;28;20393;-70
2022/03/22 20:53:24;;;;;;;0.00;0.00;;;;;;;5.97;69.26;103306.53;10334282;28;20363;-69
2022/03/22 21:03:44;;;;;;;0.00;0.00;;;;;;;5.71;70.55;103310.28;10319861;28;20066;-69
2022/03/22 21:08:44;;;;;;;0.00;0.00;;;;;;;5.44;71.45;103310.56;10324956;28;20047;-69
2022/03/22 21:13:45;;;;;;;0.00;0.00;;;;;;;5.29;73.32;103308.53;10311781;28;20031;-69
2022/03/22 21:18:45;;;;;;;0.00;0.00;;;;;;;5.21;73.25;103309.72;10344887;28;20019;-69
2022/03/22 21:23:47;;;;;;;0.00;0.00;;;;;;;5.26;72.74;103311.31;10315723;28;20466;-69
2022/03/22 21:28:48;;;;;;;0.00;0.00;;;;;;;5.13;75.31;103314.47;10315989;28;20265;-69
2022/03/22 21:33:49;;;;;;;0.00;0.00;;;;;;;5.22;71.94;103319.34;10316385;28;20056;-69
2022/03/22 21:38:49;;;;;;;0.00;0.00;;;;;;;5.47;70.19;103315.72;10301322;28;20026;-70
2022/03/22 21:43:50;;;;;;;0.00;0.00;;;;;;;5.36;71.08;103313.50;10309879;28;20428;-70
2022/03/22 21:48:51;;;;;;;0.00;0.00;;;;;;;5.16;73.43;103318.75;10316060;28;20033;-70
2022/03/22 21:53:51;;;;;;;0.00;0.00;;;;;;;4.87;74.20;103322.59;10310954;28;20022;-70
2022/03/22 21:58:54;;;;;;;0.00;0.00;;;;;;;4.46;76.79;103317.13;10321108;28;20034;-70
2022/03/22 22:03:55;;;;;;;0.00;0.00;;;;;;;4.37;77.93;103317.47;10319182;28;20274;-70
2022/03/22 22:08:55;;;;;;;0.00;0.00;;;;;;;4.37;77.55;103317.47;10305014;28;20039;-70
2022/03/22 22:13:55;;;;;;;0.00;0.00;;;;;;;4.28;77.54;103306.34;10310773;28;20470;-70
2022/03/22 22:18:56;;;;;;;0.00;0.00;;;;;;;4.33;76.98;103308.81;10307075;28;20361;-70
2022/03/22 22:23:56;;;;;;;0.00;0.00;;;;;;;4.33;77.73;103314.06;10310065;28;20656;-70
2022/03/22 22:28:56;;;;;;;0.00;0.00;;;;;;;4.40;77.28;103315.59;10306787;28;20106;-70
2022/03/22 22:33:59;;;;;;;0.00;0.00;;;;;;;4.54;76.57;103309.78;10314203;28;20042;-70
2022/03/22 22:39:00;;;;;;;0.00;0.00;;;;;;;4.53;76.15;103303.63;10311259;28;20037;-70
2022/03/22 22:44:00;;;;;;;0.00;0.00;;;;;;;4.54;75.44;103297.44;10304235;28;20371;-70
2022/03/22 22:49:00;;;;;;;0.00;0.00;;;;;;;4.51;75.48;103302.84;10316915;28;20116;-70
2022/03/22 22:54:02;;;;;;;0.00;0.00;;;;;;;4.36;75.77;103295.50;10307711;28;20026;-70
2022/03/22 22:59:03;;;;;;;0.00;0.00;;;;;;;4.19;76.07;103305.81;10307702;28;20374;-70
2022/03/22 23:04:05;;;;;;;0.00;0.00;;;;;;;4.02;77.99;103299.41;10306974;28;20030;-70
2022/03/22 23:14:24;;;;;;;0.00;0.00;;;;;;;3.83;79.49;103304.47;10307440;28;20035;-70
2022/03/22 23:19:25;;;;;;;0.00;0.00;;;;;;;3.90;78.83;103298.97;10312428;28;20618;-70
2022/03/22 23:24:25;;;;;;;0.00;0.00;;;;;;;3.93;78.06;103305.00;10299228;28;20474;-70
2022/03/22 23:29:26;;;;;;;0.00;0.00;;;;;;;3.93;77.98;103301.53;10309806;28;20022;-70
2022/03/22 23:34:27;;;;;;;0.00;0.00;;;;;;;3.84;77.85;103297.44;10309636;28;20101;-70
2022/03/22 23:39:27;;;;;;;0.00;0.00;;;;;;;3.78;79.04;103300.28;10306687;28;20018;-70
2022/03/22 23:44:29;;;;;;;0.00;0.00;;;;;;;3.70;79.01;103303.19;10301018;28;20055;-70
2022/03/22 23:49:29;;;;;;;0.00;0.00;;;;;;;3.62;79.57;103297.31;10314148;28;20072;-70
2022/03/22 23:54:30;;;;;;;0.00;0.00;;;;;;;3.50;81.38;103293.34;10309930;28;20086;-70
2022/03/22 23:59:30;;;;;;;0.00;0.00;;;;;;;3.47;80.60;103296.09;10312328;28;20023;-70
